Orondo, Washington
Current Conditions -  °F | °C
As of 5:55 AM on Saturday 20 Dec 2014 (Local Time) from KEAT Reporting Station
Light Rain Light Rain  
Wind Chill: 36°   Ceiling: 500
Heat Index: 36°   Visibility: 5mi
Dew Point: 33°   Wind: 0mph
Humidity: 89%   Direction: NA
Pressure: 29.84"   Gusts: NA
Location:  47.63°N, 120.22°W
Report Text: KEAT 201355Z AUTO 00000KT 5SM -RA BR BKN005 OVC011 02/01 A2984 RMK AO2 SLP113 P0002 T00220006
Loading
Personal Weather Stations






























Interactive Weather Map New forecast layout! Learn more

10-Day Weather Forecast

Advertisements
Track Severe Weather on mobile